Abnaki, Vermont
Current Conditions -  °F | °C
As of 3:35 PM on Tuesday 21 Oct 2014 (Local Time) from KFSO Reporting Station
Drizzle Drizzle  
Wind Chill: 47°   Ceiling: 4000
Heat Index: 49°   Visibility: 7mi
Dew Point: 47°   Wind: 5mph
Humidity: 95%   Direction: 30°NNE
Pressure: 30.01"   Gusts: NA
Location:  44.841°N, 73.2779°W
Report Text: KFSO 211935Z AUTO 03004KT 7SM DZ SCT006 BKN040 OVC050 09/09 A3001 RMK AO2 T00930085
Loading
Personal Weather Stations






























Interactive Weather Map New forecast layout! Learn more

10-Day Weather Forecast

Advertisements
Track Severe Weather on mobile